sensor_id;sensor_type;location;lat;lon;timestamp;pressure;altitude;pressure_sealevel;temperature;humidity
11648;BME280;5880;52.342;9.662;2024-01-16T00:01:15;99704.28;;;5.74;62.70
11648;BME280;5880;52.342;9.662;2024-01-16T00:03:41;99713.47;;;5.72;62.80
11648;BME280;5880;52.342;9.662;2024-01-16T00:06:07;99708.25;;;5.71;62.71
11648;BME280;5880;52.342;9.662;2024-01-16T00:08:33;99713.69;;;5.71;62.63
11648;BME280;5880;52.342;9.662;2024-01-16T00:10:59;99724.53;;;5.71;62.40
11648;BME280;5880;52.342;9.662;2024-01-16T00:13:24;99732.06;;;5.69;62.90
11648;BME280;5880;52.342;9.662;2024-01-16T00:15:50;99730.41;;;5.68;62.57
11648;BME280;5880;52.342;9.662;2024-01-16T00:18:16;99733.78;;;5.63;63.04
11648;BME280;5880;52.342;9.662;2024-01-16T00:20:42;99739.59;;;5.67;62.96
11648;BME280;5880;52.342;9.662;2024-01-16T00:23:07;99736.47;;;5.63;63.19
11648;BME280;5880;52.342;9.662;2024-01-16T00:25:34;99752.28;;;5.66;63.15
11648;BME280;5880;52.342;9.662;2024-01-16T00:28:01;99755.25;;;5.65;62.62
11648;BME280;5880;52.342;9.662;2024-01-16T00:30:27;99748.75;;;5.66;62.72
11648;BME280;5880;52.342;9.662;2024-01-16T00:32:53;99749.59;;;5.66;62.62
11648;BME280;5880;52.342;9.662;2024-01-16T00:35:19;99757.72;;;5.66;62.59
11648;BME280;5880;52.342;9.662;2024-01-16T00:37:44;99764.22;;;5.65;62.63
11648;BME280;5880;52.342;9.662;2024-01-16T00:40:11;99762.94;;;5.68;62.50
11648;BME280;5880;52.342;9.662;2024-01-16T00:42:36;99755.63;;;5.68;62.78
11648;BME280;5880;52.342;9.662;2024-01-16T00:45:02;99756.28;;;5.64;62.81
11648;BME280;5880;52.342;9.662;2024-01-16T00:47:28;99775.22;;;5.70;62.58
11648;BME280;5880;52.342;9.662;2024-01-16T00:49:53;99782.31;;;5.71;62.34
11648;BME280;5880;52.342;9.662;2024-01-16T00:52:19;99778.75;;;5.71;62.45
11648;BME280;5880;52.342;9.662;2024-01-16T00:54:45;99784.16;;;5.71;62.44
11648;BME280;5880;52.342;9.662;2024-01-16T00:57:10;99786.06;;;5.70;62.81
11648;BME280;5880;52.342;9.662;2024-01-16T00:59:37;99790.44;;;5.71;62.50
11648;BME280;5880;52.342;9.662;2024-01-16T01:02:03;99783.97;;;5.72;62.68
11648;BME280;5880;52.342;9.662;2024-01-16T01:04:29;99794.81;;;5.72;62.86
11648;BME280;5880;52.342;9.662;2024-01-16T01:06:55;99784.84;;;5.66;62.99
11648;BME280;5880;52.342;9.662;2024-01-16T01:09:21;99793.97;;;5.72;62.60
11648;BME280;5880;52.342;9.662;2024-01-16T01:11:46;99805.66;;;5.72;62.60
11648;BME280;5880;52.342;9.662;2024-01-16T01:14:12;99808.38;;;5.72;62.43
11648;BME280;5880;52.342;9.662;2024-01-16T01:16:38;99817.31;;;5.73;62.43
11648;BME280;5880;52.342;9.662;2024-01-16T01:19:03;99821.72;;;5.74;62.76
11648;BME280;5880;52.342;9.662;2024-01-16T01:21:29;99815.88;;;5.70;62.82
11648;BME280;5880;52.342;9.662;2024-01-16T01:23:55;99817.09;;;5.75;62.56
11648;BME280;5880;52.342;9.662;2024-01-16T01:26:21;99823.34;;;5.75;62.53
11648;BME280;5880;52.342;9.662;2024-01-16T01:28:47;99832.56;;;5.74;62.46
11648;BME280;5880;52.342;9.662;2024-01-16T01:31:13;99828.16;;;5.73;62.44
11648;BME280;5880;52.342;9.662;2024-01-16T01:33:39;99822.97;;;5.71;62.52
11648;BME280;5880;52.342;9.662;2024-01-16T01:36:05;99828.63;;;5.70;62.39
11648;BME280;5880;52.342;9.662;2024-01-16T01:38:31;99821.97;;;5.66;62.18
11648;BME280;5880;52.342;9.662;2024-01-16T01:40:57;99832.38;;;5.69;62.29
11648;BME280;5880;52.342;9.662;2024-01-16T01:43:24;99843.66;;;5.66;62.36
11648;BME280;5880;52.342;9.662;2024-01-16T01:46:13;99843.47;;;5.61;61.94
11648;BME280;5880;52.342;9.662;2024-01-16T01:48:41;99851.25;;;5.57;61.72
11648;BME280;5880;52.342;9.662;2024-01-16T01:51:13;99837.06;;;5.55;62.39
11648;BME280;5880;52.342;9.662;2024-01-16T01:53:41;99846.22;;;5.54;62.51
11648;BME280;5880;52.342;9.662;2024-01-16T01:56:11;99855.19;;;5.55;62.30
11648;BME280;5880;52.342;9.662;2024-01-16T01:58:41;99855.44;;;5.53;62.38
11648;BME280;5880;52.342;9.662;2024-01-16T02:01:09;99860.41;;;5.56;62.70
11648;BME280;5880;52.342;9.662;2024-01-16T02:03:46;99854.97;;;5.56;62.53
11648;BME280;5880;52.342;9.662;2024-01-16T02:06:13;99857.91;;;5.55;62.50
11648;BME280;5880;52.342;9.662;2024-01-16T02:08:42;99860.41;;;5.56;62.50
11648;BME280;5880;52.342;9.662;2024-01-16T02:11:09;99855.81;;;5.57;62.55
11648;BME280;5880;52.342;9.662;2024-01-16T02:13:35;99861.22;;;5.57;62.57
11648;BME280;5880;52.342;9.662;2024-01-16T02:16:02;99858.31;;;5.58;62.59
11648;BME280;5880;52.342;9.662;2024-01-16T02:18:29;99874.56;;;5.58;62.25
11648;BME280;5880;52.342;9.662;2024-01-16T02:20:59;99871.03;;;5.58;62.31
11648;BME280;5880;52.342;9.662;2024-01-16T02:23:27;99867.72;;;5.56;62.24
11648;BME280;5880;52.342;9.662;2024-01-16T02:25:54;99875.41;;;5.59;62.14
11648;BME280;5880;52.342;9.662;2024-01-16T02:28:20;99868.53;;;5.56;62.43
11648;BME280;5880;52.342;9.662;2024-01-16T02:30:45;99872.31;;;5.55;62.34
11648;BME280;5880;52.342;9.662;2024-01-16T02:33:11;99878.75;;;5.54;62.19
11648;BME280;5880;52.342;9.662;2024-01-16T02:35:37;99879.59;;;5.55;62.29
11648;BME280;5880;52.342;9.662;2024-01-16T02:38:03;99886.91;;;5.54;62.29
11648;BME280;5880;52.342;9.662;2024-01-16T02:40:29;99880.47;;;5.48;62.09
11648;BME280;5880;52.342;9.662;2024-01-16T02:42:55;99885.44;;;5.52;62.00
11648;BME280;5880;52.342;9.662;2024-01-16T02:45:21;99887.53;;;5.49;61.88
11648;BME280;5880;52.342;9.662;2024-01-16T02:47:47;99887.78;;;5.48;61.92
11648;BME280;5880;52.342;9.662;2024-01-16T02:50:12;99897.38;;;5.44;61.99
11648;BME280;5880;52.342;9.662;2024-01-16T02:52:38;99894.50;;;5.39;61.62
11648;BME280;5880;52.342;9.662;2024-01-16T02:55:05;99898.47;;;5.36;61.86
11648;BME280;5880;52.342;9.662;2024-01-16T02:57:31;99887.25;;;5.26;61.75
11648;BME280;5880;52.342;9.662;2024-01-16T02:59:57;99897.66;;;5.29;61.70
11648;BME280;5880;52.342;9.662;2024-01-16T03:02:22;99906.84;;;5.28;61.71
11648;BME280;5880;52.342;9.662;2024-01-16T03:04:49;99892.66;;;5.26;61.91
11648;BME280;5880;52.342;9.662;2024-01-16T03:07:15;99904.56;;;5.25;61.96
11648;BME280;5880;52.342;9.662;2024-01-16T03:09:41;99896.25;;;5.20;61.66
11648;BME280;5880;52.342;9.662;2024-01-16T03:12:07;99897.09;;;5.14;61.74
11648;BME280;5880;52.342;9.662;2024-01-16T03:14:32;99907.09;;;5.13;61.38
11648;BME280;5880;52.342;9.662;2024-01-16T03:17:03;99907.50;;;5.10;61.48
11648;BME280;5880;52.342;9.662;2024-01-16T03:19:29;99909.63;;;5.08;61.48
11648;BME280;5880;52.342;9.662;2024-01-16T03:21:54;99913.19;;;5.02;61.43
11648;BME280;5880;52.342;9.662;2024-01-16T03:24:20;99911.50;;;5.01;61.43
11648;BME280;5880;52.342;9.662;2024-01-16T03:26:46;99919.88;;;4.99;61.56
11648;BME280;5880;52.342;9.662;2024-01-16T03:29:11;99920.28;;;4.96;61.48
11648;BME280;5880;52.342;9.662;2024-01-16T03:31:37;99913.19;;;4.95;61.32
11648;BME280;5880;52.342;9.662;2024-01-16T03:34:03;99921.75;;;4.92;61.69
11648;BME280;5880;52.342;9.662;2024-01-16T03:36:28;99927.38;;;4.91;61.45
11648;BME280;5880;52.342;9.662;2024-01-16T03:38:54;99917.63;;;4.83;61.63
11648;BME280;5880;52.342;9.662;2024-01-16T03:41:20;99938.66;;;4.88;61.45
11648;BME280;5880;52.342;9.662;2024-01-16T03:43:45;99930.31;;;4.82;61.78
11648;BME280;5880;52.342;9.662;2024-01-16T03:46:11;99934.25;;;4.86;61.62
11648;BME280;5880;52.342;9.662;2024-01-16T03:48:37;99937.41;;;4.83;61.62
11648;BME280;5880;52.342;9.662;2024-01-16T03:51:03;99934.25;;;4.80;61.50
11648;BME280;5880;52.342;9.662;2024-01-16T03:53:28;99945.50;;;4.83;61.42
11648;BME280;5880;52.342;9.662;2024-01-16T03:55:54;99944.88;;;4.81;61.34
11648;BME280;5880;52.342;9.662;2024-01-16T03:58:20;99946.78;;;4.81;61.89
11648;BME280;5880;52.342;9.662;2024-01-16T04:00:46;99955.09;;;4.79;61.44
11648;BME280;5880;52.342;9.662;2024-01-16T04:03:12;99963.44;;;4.78;61.52
11648;BME280;5880;52.342;9.662;2024-01-16T04:05:38;99960.94;;;4.76;61.68
11648;BME280;5880;52.342;9.662;2024-01-16T04:08:04;99967.81;;;4.72;61.57
11648;BME280;5880;52.342;9.662;2024-01-16T04:10:30;99967.81;;;4.72;61.22
11648;BME280;5880;52.342;9.662;2024-01-16T04:12:55;99961.38;;;4.73;61.58
11648;BME280;5880;52.342;9.662;2024-01-16T04:15:21;99962.63;;;4.64;61.53
11648;BME280;5880;52.342;9.662;2024-01-16T04:17:47;99971.78;;;4.70;61.63
11648;BME280;5880;52.342;9.662;2024-01-16T04:20:13;99975.31;;;4.70;61.90
11648;BME280;5880;52.342;9.662;2024-01-16T04:22:39;99977.19;;;4.70;61.77
11648;BME280;5880;52.342;9.662;2024-01-16T04:25:05;99966.16;;;4.71;62.03
11648;BME280;5880;52.342;9.662;2024-01-16T04:27:31;99979.69;;;4.71;61.82
11648;BME280;5880;52.342;9.662;2024-01-16T04:29:57;99981.16;;;4.74;62.10
11648;BME280;5880;52.342;9.662;2024-01-16T04:32:23;99976.34;;;4.76;61.71
11648;BME280;5880;52.342;9.662;2024-01-16T04:34:49;99970.53;;;4.72;62.07
11648;BME280;5880;52.342;9.662;2024-01-16T04:37:15;99977.19;;;4.76;62.30
11648;BME280;5880;52.342;9.662;2024-01-16T04:39:40;99981.34;;;4.79;61.97
11648;BME280;5880;52.342;9.662;2024-01-16T04:42:06;99973.84;;;4.81;62.08
11648;BME280;5880;52.342;9.662;2024-01-16T04:44:32;99969.88;;;4.83;62.30
11648;BME280;5880;52.342;9.662;2024-01-16T04:46:57;99970.72;;;4.84;62.07
11648;BME280;5880;52.342;9.662;2024-01-16T04:49:23;99972.16;;;4.86;62.21
11648;BME280;5880;52.342;9.662;2024-01-16T04:51:49;99965.72;;;4.88;62.30
11648;BME280;5880;52.342;9.662;2024-01-16T04:54:15;99975.50;;;4.89;61.92
11648;BME280;5880;52.342;9.662;2024-01-16T04:56:41;99976.94;;;4.91;61.93
11648;BME280;5880;52.342;9.662;2024-01-16T04:59:07;99976.94;;;4.91;61.83
11648;BME280;5880;52.342;9.662;2024-01-16T05:01:32;99968.63;;;4.86;61.93
11648;BME280;5880;52.342;9.662;2024-01-16T05:03:58;99968.44;;;4.88;61.66
11648;BME280;5880;52.342;9.662;2024-01-16T05:06:24;99966.53;;;4.88;61.74
11648;BME280;5880;52.342;9.662;2024-01-16T05:08:49;99971.13;;;4.88;61.51
11648;BME280;5880;52.342;9.662;2024-01-16T05:11:15;99974.88;;;4.86;61.43
11648;BME280;5880;52.342;9.662;2024-01-16T05:13:41;99973.22;;;4.85;61.74
11648;BME280;5880;52.342;9.662;2024-01-16T05:16:06;99978.84;;;4.84;61.60
11648;BME280;5880;52.342;9.662;2024-01-16T05:18:33;99974.03;;;4.86;61.46
11648;BME280;5880;52.342;9.662;2024-01-16T05:20:59;99976.13;;;4.84;61.90
11648;BME280;5880;52.342;9.662;2024-01-16T05:23:25;99978.84;;;4.84;61.79
11648;BME280;5880;52.342;9.662;2024-01-16T05:25:50;99976.34;;;4.82;61.63
11648;BME280;5880;52.342;9.662;2024-01-16T05:28:16;99986.13;;;4.83;61.45
11648;BME280;5880;52.342;9.662;2024-01-16T05:30:42;99978.44;;;4.80;61.72
11648;BME280;5880;52.342;9.662;2024-01-16T05:33:08;99968.88;;;4.78;61.30
11648;BME280;5880;52.342;9.662;2024-01-16T05:35:34;99982.81;;;4.81;61.22
11648;BME280;5880;52.342;9.662;2024-01-16T05:38:00;99969.25;;;4.81;61.36
11648;BME280;5880;52.342;9.662;2024-01-16T05:40:26;99969.25;;;4.75;61.35
11648;BME280;5880;52.342;9.662;2024-01-16T05:42:51;99979.69;;;4.78;61.62
11648;BME280;5880;52.342;9.662;2024-01-16T05:45:17;99985.31;;;4.76;61.50
11648;BME280;5880;52.342;9.662;2024-01-16T05:47:43;99983.66;;;4.75;61.62
11648;BME280;5880;52.342;9.662;2024-01-16T05:50:09;99976.56;;;4.74;61.44
11648;BME280;5880;52.342;9.662;2024-01-16T05:52:36;99978.25;;;4.75;61.53
11648;BME280;5880;52.342;9.662;2024-01-16T05:55:03;99985.09;;;4.71;61.46
11648;BME280;5880;52.342;9.662;2024-01-16T05:57:29;99989.06;;;4.75;61.43
11648;BME280;5880;52.342;9.662;2024-01-16T05:59:59;99991.78;;;4.75;61.66
11648;BME280;5880;52.342;9.662;2024-01-16T06:02:25;99997.41;;;4.74;61.46
11648;BME280;5880;52.342;9.662;2024-01-16T06:04:51;99993.00;;;4.73;61.44
11648;BME280;5880;52.342;9.662;2024-01-16T06:07:16;99999.28;;;4.73;61.58
11648;BME280;5880;52.342;9.662;2024-01-16T06:09:42;99989.28;;;4.74;61.83
11648;BME280;5880;52.342;9.662;2024-01-16T06:12:08;99991.97;;;4.74;61.79
11648;BME280;5880;52.342;9.662;2024-01-16T06:14:34;99997.78;;;4.77;61.93
11648;BME280;5880;52.342;9.662;2024-01-16T06:17:00;99991.13;;;4.80;61.91
11648;BME280;5880;52.342;9.662;2024-01-16T06:19:26;99991.97;;;4.80;61.95
11648;BME280;5880;52.342;9.662;2024-01-16T06:21:52;99986.13;;;4.83;62.13
11648;BME280;5880;52.342;9.662;2024-01-16T06:24:18;99990.28;;;4.86;62.25
11648;BME280;5880;52.342;9.662;2024-01-16T06:26:44;99991.75;;;4.89;61.88
11648;BME280;5880;52.342;9.662;2024-01-16T06:29:09;99990.50;;;4.91;61.95
11648;BME280;5880;52.342;9.662;2024-01-16T06:31:35;99987.59;;;4.93;62.25
11648;BME280;5880;52.342;9.662;2024-01-16T06:34:01;99995.06;;;4.97;61.91
11648;BME280;5880;52.342;9.662;2024-01-16T06:36:26;99988.19;;;5.01;62.07
11648;BME280;5880;52.342;9.662;2024-01-16T06:38:53;99988.81;;;5.03;62.02
11648;BME280;5880;52.342;9.662;2024-01-16T06:41:18;99980.25;;;5.06;61.78
11648;BME280;5880;52.342;9.662;2024-01-16T06:43:44;99977.13;;;5.03;61.94
11648;BME280;5880;52.342;9.662;2024-01-16T06:46:10;99996.91;;;5.10;61.81
11648;BME280;5880;52.342;9.662;2024-01-16T06:48:36;99990.47;;;5.11;62.14
11648;BME280;5880;52.342;9.662;2024-01-16T06:51:04;99993.19;;;5.11;61.92
11648;BME280;5880;52.342;9.662;2024-01-16T06:53:30;99986.50;;;5.07;61.72
11648;BME280;5880;52.342;9.662;2024-01-16T06:55:55;99988.19;;;5.08;61.79
11648;BME280;5880;52.342;9.662;2024-01-16T06:58:21;99994.19;;;5.10;61.45
11648;BME280;5880;52.342;9.662;2024-01-16T07:00:47;100001.72;;;5.08;61.26
11648;BME280;5880;52.342;9.662;2024-01-16T07:03:13;99996.09;;;5.03;61.50
11648;BME280;5880;52.342;9.662;2024-01-16T07:05:40;99994.44;;;5.02;61.30
11648;BME280;5880;52.342;9.662;2024-01-16T07:08:09;99997.34;;;5.00;61.25
11648;BME280;5880;52.342;9.662;2024-01-16T07:10:35;100002.13;;;4.98;61.36
11648;BME280;5880;52.342;9.662;2024-01-16T07:13:01;100005.28;;;4.95;61.28
11648;BME280;5880;52.342;9.662;2024-01-16T07:15:28;100008.19;;;4.94;61.37
11648;BME280;5880;52.342;9.662;2024-01-16T07:17:54;100011.94;;;4.93;61.30
11648;BME280;5880;52.342;9.662;2024-01-16T07:20:19;100015.91;;;4.90;61.08
11648;BME280;5880;52.342;9.662;2024-01-16T07:22:46;100008.41;;;4.85;61.52
11648;BME280;5880;52.342;9.662;2024-01-16T07:25:11;100021.53;;;4.89;61.20
11648;BME280;5880;52.342;9.662;2024-01-16T07:27:37;100011.94;;;4.86;61.46
11648;BME280;5880;52.342;9.662;2024-01-16T07:30:07;100015.28;;;4.88;61.27
11648;BME280;5880;52.342;9.662;2024-01-16T07:32:33;100016.53;;;4.85;61.21
11648;BME280;5880;52.342;9.662;2024-01-16T07:34:59;100020.91;;;4.86;61.24
11648;BME280;5880;52.342;9.662;2024-01-16T07:37:24;100018.44;;;4.85;61.28
11648;BME280;5880;52.342;9.662;2024-01-16T07:39:50;100026.94;;;4.82;61.38
11648;BME280;5880;52.342;9.662;2024-01-16T07:42:16;100015.91;;;4.83;61.57
11648;BME280;5880;52.342;9.662;2024-01-16T07:44:42;100019.44;;;4.84;61.61
11648;BME280;5880;52.342;9.662;2024-01-16T07:47:07;100008.63;;;4.77;61.54
11648;BME280;5880;52.342;9.662;2024-01-16T07:49:34;100014.88;;;4.84;61.55
11648;BME280;5880;52.342;9.662;2024-01-16T07:52:00;100016.34;;;4.80;61.36
11648;BME280;5880;52.342;9.662;2024-01-16T07:54:25;100019.25;;;4.85;61.57
11648;BME280;5880;52.342;9.662;2024-01-16T07:56:52;100024.47;;;4.87;61.75
11648;BME280;5880;52.342;9.662;2024-01-16T07:59:18;100026.56;;;4.85;61.53
11648;BME280;5880;52.342;9.662;2024-01-16T08:01:43;100029.88;;;4.87;61.76
11648;BME280;5880;52.342;9.662;2024-01-16T08:04:09;100030.72;;;4.88;61.60
11648;BME280;5880;52.342;9.662;2024-01-16T08:06:35;100028.63;;;4.90;61.78
11648;BME280;5880;52.342;9.662;2024-01-16T08:09:01;100029.47;;;4.90;61.43
11648;BME280;5880;52.342;9.662;2024-01-16T08:11:26;100034.69;;;4.92;61.81
11648;BME280;5880;52.342;9.662;2024-01-16T08:13:52;100029.25;;;4.92;61.92
11648;BME280;5880;52.342;9.662;2024-01-16T08:16:18;100030.72;;;4.94;62.12
11648;BME280;5880;52.342;9.662;2024-01-16T08:18:43;100034.44;;;4.93;62.32
11648;BME280;5880;52.342;9.662;2024-01-16T08:21:09;100032.78;;;4.99;62.32
11648;BME280;5880;52.342;9.662;2024-01-16T08:23:35;100036.09;;;5.01;61.92
11648;BME280;5880;52.342;9.662;2024-01-16T08:26:00;100035.06;;;5.02;61.98
11648;BME280;5880;52.342;9.662;2024-01-16T08:28:26;100035.91;;;5.02;62.02
11648;BME280;5880;52.342;9.662;2024-01-16T08:30:52;100039.03;;;5.06;62.05
11648;BME280;5880;52.342;9.662;2024-01-16T08:33:18;100036.09;;;5.07;62.04
11648;BME280;5880;52.342;9.662;2024-01-16T08:35:44;100034.84;;;5.10;62.16
11648;BME280;5880;52.342;9.662;2024-01-16T08:38:10;100030.03;;;5.05;62.16
11648;BME280;5880;52.342;9.662;2024-01-16T08:40:36;100037.16;;;5.06;62.05
11648;BME280;5880;52.342;9.662;2024-01-16T08:43:02;100038.78;;;5.14;62.26
11648;BME280;5880;52.342;9.662;2024-01-16T08:45:29;100027.56;;;5.11;62.19
11648;BME280;5880;52.342;9.662;2024-01-16T08:47:55;100039.22;;;5.18;62.48
11648;BME280;5880;52.342;9.662;2024-01-16T08:50:20;100046.72;;;5.22;62.23
11648;BME280;5880;52.342;9.662;2024-01-16T08:52:46;100032.53;;;5.20;62.62
11648;BME280;5880;52.342;9.662;2024-01-16T08:55:12;100030.84;;;5.26;62.14
11648;BME280;5880;52.342;9.662;2024-01-16T08:57:38;100035.25;;;5.27;62.60
11648;BME280;5880;52.342;9.662;2024-01-16T09:00:05;100024.59;;;5.25;62.47
11648;BME280;5880;52.342;9.662;2024-01-16T09:02:31;100033.75;;;5.31;62.33
11648;BME280;5880;52.342;9.662;2024-01-16T09:04:57;100028.75;;;5.28;62.33
11648;BME280;5880;52.342;9.662;2024-01-16T09:07:24;100037.91;;;5.34;62.64
11648;BME280;5880;52.342;9.662;2024-01-16T09:09:50;100028.75;;;5.35;62.26
11648;BME280;5880;52.342;9.662;2024-01-16T09:12:16;100032.91;;;5.37;62.54
11648;BME280;5880;52.342;9.662;2024-01-16T09:14:41;100028.13;;;5.39;62.58
11648;BME280;5880;52.342;9.662;2024-01-16T09:17:07;100027.69;;;5.42;62.29
11648;BME280;5880;52.342;9.662;2024-01-16T09:19:33;100024.78;;;5.44;62.48
11648;BME280;5880;52.342;9.662;2024-01-16T09:21:58;100028.09;;;5.46;62.41
11648;BME280;5880;52.342;9.662;2024-01-16T09:24:24;100029.56;;;5.48;62.54
11648;BME280;5880;52.342;9.662;2024-01-16T09:26:50;100041.66;;;5.53;62.75
11648;BME280;5880;52.342;9.662;2024-01-16T09:29:15;100035.78;;;5.56;62.74
11648;BME280;5880;52.342;9.662;2024-01-16T09:31:42;100038.88;;;5.59;62.67
11648;BME280;5880;52.342;9.662;2024-01-16T09:34:08;100036.59;;;5.63;62.59
11648;BME280;5880;52.342;9.662;2024-01-16T09:36:34;100032.44;;;5.60;62.60
11648;BME280;5880;52.342;9.662;2024-01-16T09:39:05;100030.34;;;5.62;62.00
11648;BME280;5880;52.342;9.662;2024-01-16T09:41:34;100026.38;;;5.65;62.31
11648;BME280;5880;52.342;9.662;2024-01-16T09:44:00;100029.09;;;5.65;62.73
11648;BME280;5880;52.342;9.662;2024-01-16T09:46:27;100038.84;;;5.72;62.72
11648;BME280;5880;52.342;9.662;2024-01-16T09:48:55;100032.16;;;5.75;62.74
11648;BME280;5880;52.342;9.662;2024-01-16T09:51:22;100040.47;;;5.80;62.77
11648;BME280;5880;52.342;9.662;2024-01-16T09:53:47;100044.63;;;5.83;62.38
11648;BME280;5880;52.342;9.662;2024-01-16T09:56:22;100037.13;;;5.85;62.90
11648;BME280;5880;52.342;9.662;2024-01-16T09:59:00;100043.56;;;5.90;62.92
11648;BME280;5880;52.342;9.662;2024-01-16T10:01:30;100039.59;;;5.93;62.87
11648;BME280;5880;52.342;9.662;2024-01-16T10:03:56;100040.00;;;5.97;63.11
11648;BME280;5880;52.342;9.662;2024-01-16T10:06:23;100045.41;;;6.03;62.96
11648;BME280;5880;52.342;9.662;2024-01-16T10:08:49;100038.50;;;6.07;63.28
11648;BME280;5880;52.342;9.662;2024-01-16T10:11:15;100044.94;;;6.13;62.52
11648;BME280;5880;52.342;9.662;2024-01-16T10:13:40;100033.66;;;6.16;62.97
11648;BME280;5880;52.342;9.662;2024-01-16T10:16:06;100040.09;;;6.22;62.74
11648;BME280;5880;52.342;9.662;2024-01-16T10:18:33;100045.31;;;6.23;62.74
11648;BME280;5880;52.342;9.662;2024-01-16T10:20:59;100040.44;;;6.32;63.17
11648;BME280;5880;52.342;9.662;2024-01-16T10:23:28;100045.00;;;6.38;62.77
11648;BME280;5880;52.342;9.662;2024-01-16T10:28:33;100056.44;;;6.47;62.50
11648;BME280;5880;52.342;9.662;2024-01-16T10:31:13;100052.25;;;6.51;62.63
11648;BME280;5880;52.342;9.662;2024-01-16T10:33:42;100045.75;;;6.52;63.16
11648;BME280;5880;52.342;9.662;2024-01-16T10:38:43;100047.19;;;6.54;62.29
11648;BME280;5880;52.342;9.662;2024-01-16T10:41:17;100052.41;;;6.56;62.11
11648;BME280;5880;52.342;9.662;2024-01-16T10:43:43;100046.97;;;6.56;62.75
11648;BME280;5880;52.342;9.662;2024-01-16T10:46:15;100050.31;;;6.58;62.78
11648;BME280;5880;52.342;9.662;2024-01-16T10:48:44;100051.75;;;6.61;62.36
11648;BME280;5880;52.342;9.662;2024-01-16T10:51:14;100054.22;;;6.62;62.54
11648;BME280;5880;52.342;9.662;2024-01-16T10:53:43;100052.94;;;6.65;62.25
11648;BME280;5880;52.342;9.662;2024-01-16T10:56:12;100044.81;;;6.65;62.74
11648;BME280;5880;52.342;9.662;2024-01-16T10:58:42;100055.47;;;6.66;62.49
11648;BME280;5880;52.342;9.662;2024-01-16T11:01:15;100055.25;;;6.68;62.52
11648;BME280;5880;52.342;9.662;2024-01-16T11:03:49;100055.88;;;6.70;62.14
11648;BME280;5880;52.342;9.662;2024-01-16T11:06:17;100060.22;;;6.71;62.56
11648;BME280;5880;52.342;9.662;2024-01-16T11:08:46;100057.06;;;6.74;62.63
11648;BME280;5880;52.342;9.662;2024-01-16T11:11:14;100058.75;;;6.75;62.43
11648;BME280;5880;52.342;9.662;2024-01-16T11:13:40;100051.81;;;6.79;62.72
11648;BME280;5880;52.342;9.662;2024-01-16T11:16:11;100057.84;;;6.81;62.48
11648;BME280;5880;52.342;9.662;2024-01-16T11:18:37;100046.38;;;6.79;62.22
11648;BME280;5880;52.342;9.662;2024-01-16T11:21:12;100061.56;;;6.87;62.66
11648;BME280;5880;52.342;9.662;2024-01-16T11:23:39;100068.44;;;6.89;62.81
11648;BME280;5880;52.342;9.662;2024-01-16T11:26:28;100063.19;;;6.94;62.46
11648;BME280;5880;52.342;9.662;2024-01-16T11:28:55;100055.69;;;6.90;62.35
11648;BME280;5880;52.342;9.662;2024-01-16T11:31:35;100062.13;;;6.95;62.05
11648;BME280;5880;52.342;9.662;2024-01-16T11:34:02;100057.53;;;6.96;62.22
11648;BME280;5880;52.342;9.662;2024-01-16T11:36:51;100065.44;;;6.97;62.38
11648;BME280;5880;52.342;9.662;2024-01-16T11:39:24;100055.63;;;6.96;62.26
11648;BME280;5880;52.342;9.662;2024-01-16T11:41:57;100066.28;;;6.98;61.57
11648;BME280;5880;52.342;9.662;2024-01-16T11:44:47;100058.97;;;6.98;62.17
11648;BME280;5880;52.342;9.662;2024-01-16T11:47:18;100054.19;;;6.94;61.62
11648;BME280;5880;52.342;9.662;2024-01-16T11:49:45;100054.56;;;6.97;61.87
11648;BME280;5880;52.342;9.662;2024-01-16T11:52:11;100059.19;;;6.97;61.86
11648;BME280;5880;52.342;9.662;2024-01-16T11:54:39;100064.63;;;6.97;61.58
11648;BME280;5880;52.342;9.662;2024-01-16T11:57:12;100062.56;;;6.92;61.85
11648;BME280;5880;52.342;9.662;2024-01-16T12:00:04;100065.69;;;6.96;61.03
11648;BME280;5880;52.342;9.662;2024-01-16T12:02:56;100081.56;;;6.92;61.56
11648;BME280;5880;52.342;9.662;2024-01-16T12:05:22;100064.91;;;6.89;61.36
11648;BME280;5880;52.342;9.662;2024-01-16T12:07:53;100069.28;;;6.90;61.26
11648;BME280;5880;52.342;9.662;2024-01-16T12:10:24;100057.19;;;6.86;61.06
11648;BME280;5880;52.342;9.662;2024-01-16T12:12:57;100058.84;;;6.87;60.96
11648;BME280;5880;52.342;9.662;2024-01-16T12:15:23;100057.63;;;6.83;61.00
11648;BME280;5880;52.342;9.662;2024-01-16T12:17:59;100058.09;;;6.80;60.80
11648;BME280;5880;52.342;9.662;2024-01-16T12:20:29;100057.91;;;6.74;61.35
11648;BME280;5880;52.342;9.662;2024-01-16T12:23:04;100056.03;;;6.75;61.42
11648;BME280;5880;52.342;9.662;2024-01-16T12:25:33;100056.25;;;6.73;61.74
11648;BME280;5880;52.342;9.662;2024-01-16T12:28:07;100049.38;;;6.71;61.12
11648;BME280;5880;52.342;9.662;2024-01-16T12:30:37;100056.25;;;6.73;61.29
11648;BME280;5880;52.342;9.662;2024-01-16T12:33:04;100052.09;;;6.71;60.77
11648;BME280;5880;52.342;9.662;2024-01-16T12:35:38;100058.34;;;6.71;61.09
11648;BME280;5880;52.342;9.662;2024-01-16T12:38:10;100058.56;;;6.70;61.04
11648;BME280;5880;52.342;9.662;2024-01-16T12:40:48;100056.69;;;6.70;61.12
11648;BME280;5880;52.342;9.662;2024-01-16T12:43:17;100052.09;;;6.71;61.74
11648;BME280;5880;52.342;9.662;2024-01-16T12:45:44;100051.25;;;6.70;61.06
11648;BME280;5880;52.342;9.662;2024-01-16T12:48:11;100045.00;;;6.70;61.41
11648;BME280;5880;52.342;9.662;2024-01-16T12:50:37;100049.38;;;6.71;61.13
11648;BME280;5880;52.342;9.662;2024-01-16T12:53:11;100038.50;;;6.71;61.30
11648;BME280;5880;52.342;9.662;2024-01-16T12:55:39;100037.47;;;6.72;60.94
11648;BME280;5880;52.342;9.662;2024-01-16T12:58:22;100027.63;;;6.71;60.92
11648;BME280;5880;52.342;9.662;2024-01-16T13:00:53;100029.75;;;6.69;61.35
11648;BME280;5880;52.342;9.662;2024-01-16T13:03:21;100025.13;;;6.69;60.89
11648;BME280;5880;52.342;9.662;2024-01-16T13:06:00;100029.75;;;6.69;60.76
11648;BME280;5880;52.342;9.662;2024-01-16T13:08:27;100031.00;;;6.66;61.01
11648;BME280;5880;52.342;9.662;2024-01-16T13:11:07;100029.13;;;6.67;61.22
11648;BME280;5880;52.342;9.662;2024-01-16T13:13:33;100023.09;;;6.65;61.48
11648;BME280;5880;52.342;9.662;2024-01-16T13:16:00;100014.09;;;6.64;61.24
11648;BME280;5880;52.342;9.662;2024-01-16T13:18:28;100013.28;;;6.64;61.18
11648;BME280;5880;52.342;9.662;2024-01-16T13:20:57;100010.16;;;6.60;60.91
11648;BME280;5880;52.342;9.662;2024-01-16T13:23:24;100024.81;;;6.59;61.00